sensor_id;sensor_type;location;lat;lon;timestamp;pressure;altitude;pressure_sealevel;temperature;humidity
56074;BME280;41950;55.840;37.442;2023-07-20T00:02:04;98258.19;;;13.41;84.04
56074;BME280;41950;55.840;37.442;2023-07-20T00:04:31;98253.44;;;13.32;84.21
56074;BME280;41950;55.840;37.442;2023-07-20T00:06:57;98218.19;;;13.08;84.19
56074;BME280;41950;55.840;37.442;2023-07-20T00:09:23;98218.88;;;13.11;84.25
56074;BME280;41950;55.840;37.442;2023-07-20T00:11:50;98259.25;;;13.37;84.28
56074;BME280;41950;55.840;37.442;2023-07-20T00:14:16;98207.47;;;12.96;84.39
56074;BME280;41950;55.840;37.442;2023-07-20T00:16:42;98260.34;;;13.33;84.47
56074;BME280;41950;55.840;37.442;2023-07-20T00:19:08;98179.75;;;12.78;84.29
56074;BME280;41950;55.840;37.442;2023-07-20T00:21:35;98226.25;;;13.03;84.50
56074;BME280;41950;55.840;37.442;2023-07-20T00:24:01;98271.94;;;13.27;85.05
56074;BME280;41950;55.840;37.442;2023-07-20T00:26:27;98245.06;;;13.08;84.51
56074;BME280;41950;55.840;37.442;2023-07-20T00:28:52;98210.69;;;12.84;84.87
56074;BME280;41950;55.840;37.442;2023-07-20T00:31:18;98200.41;;;12.81;84.70
56074;BME280;41950;55.840;37.442;2023-07-20T00:33:43;98279.81;;;13.26;84.85
56074;BME280;41950;55.840;37.442;2023-07-20T00:36:09;98252.72;;;13.11;84.80
56074;BME280;41950;55.840;37.442;2023-07-20T00:38:34;98248.75;;;13.04;85.06
56074;BME280;41950;55.840;37.442;2023-07-20T00:41:00;98280.75;;;13.25;84.75
56074;BME280;41950;55.840;37.442;2023-07-20T00:43:26;98278.13;;;13.25;85.00
56074;BME280;41950;55.840;37.442;2023-07-20T00:45:51;98285.19;;;13.23;85.08
56074;BME280;41950;55.840;37.442;2023-07-20T00:48:17;98251.53;;;13.01;84.95
56074;BME280;41950;55.840;37.442;2023-07-20T00:50:43;98270.97;;;13.11;84.87
56074;BME280;41950;55.840;37.442;2023-07-20T00:53:11;98280.97;;;13.20;84.72
56074;BME280;41950;55.840;37.442;2023-07-20T00:55:37;98212.28;;;12.69;84.95
56074;BME280;41950;55.840;37.442;2023-07-20T00:58:03;98300.25;;;13.16;85.01
56074;BME280;41950;55.840;37.442;2023-07-20T01:00:29;98259.47;;;12.98;85.17
56074;BME280;41950;55.840;37.442;2023-07-20T01:02:54;98200.03;;;12.54;86.01
56074;BME280;41950;55.840;37.442;2023-07-20T01:05:20;98293.56;;;13.11;85.30
56074;BME280;41950;55.840;37.442;2023-07-20T01:07:58;98273.34;;;12.98;85.20
56074;BME280;41950;55.840;37.442;2023-07-20T01:10:43;98263.47;;;12.88;85.22
56074;BME280;41950;55.840;37.442;2023-07-20T01:13:10;98296.25;;;13.09;85.19
56074;BME280;41950;55.840;37.442;2023-07-20T01:15:36;98275.94;;;12.98;85.17
56074;BME280;41950;55.840;37.442;2023-07-20T01:18:02;98238.03;;;12.76;84.95
56074;BME280;41950;55.840;37.442;2023-07-20T01:20:31;98291.13;;;13.08;85.28
56074;BME280;41950;55.840;37.442;2023-07-20T01:31:27;98275.69;;;12.86;85.62
56074;BME280;41950;55.840;37.442;2023-07-20T01:33:57;98294.03;;;13.02;85.45
56074;BME280;41950;55.840;37.442;2023-07-20T01:36:24;98261.31;;;12.79;85.61
56074;BME280;41950;55.840;37.442;2023-07-20T01:38:52;98299.16;;;13.03;85.43
56074;BME280;41950;55.840;37.442;2023-07-20T01:41:18;98303.44;;;13.04;85.62
56074;BME280;41950;55.840;37.442;2023-07-20T01:43:44;98292.13;;;13.05;85.26
56074;BME280;41950;55.840;37.442;2023-07-20T01:46:10;98256.69;;;12.84;85.20
56074;BME280;41950;55.840;37.442;2023-07-20T01:48:35;98236.50;;;12.72;85.34
56074;BME280;41950;55.840;37.442;2023-07-20T01:51:01;98296.41;;;13.06;85.35
56074;BME280;41950;55.840;37.442;2023-07-20T01:53:27;98297.16;;;13.08;85.15
56074;BME280;41950;55.840;37.442;2023-07-20T01:58:56;98278.63;;;12.97;85.17
56074;BME280;41950;55.840;37.442;2023-07-20T02:01:22;98287.44;;;13.12;85.14
56074;BME280;41950;55.840;37.442;2023-07-20T02:03:47;98278.78;;;13.11;84.99
56074;BME280;41950;55.840;37.442;2023-07-20T02:06:13;98290.13;;;13.10;85.03
56074;BME280;41950;55.840;37.442;2023-07-20T02:08:39;98293.72;;;13.08;85.40
56074;BME280;41950;55.840;37.442;2023-07-20T02:11:05;98194.34;;;12.46;85.47
56074;BME280;41950;55.840;37.442;2023-07-20T02:13:30;98285.22;;;13.04;85.37
56074;BME280;41950;55.840;37.442;2023-07-20T02:15:56;98292.97;;;13.06;85.35
56074;BME280;41950;55.840;37.442;2023-07-20T02:18:21;98292.88;;;13.07;85.43
56074;BME280;41950;55.840;37.442;2023-07-20T02:20:47;98290.28;;;13.07;85.74
56074;BME280;41950;55.840;37.442;2023-07-20T02:23:13;98287.22;;;12.99;85.40
56074;BME280;41950;55.840;37.442;2023-07-20T02:25:39;98239.16;;;12.70;85.60
56074;BME280;41950;55.840;37.442;2023-07-20T02:28:07;98282.84;;;12.99;85.52
56074;BME280;41950;55.840;37.442;2023-07-20T02:30:33;98250.66;;;12.83;85.65
56074;BME280;41950;55.840;37.442;2023-07-20T02:32:59;98265.94;;;12.91;85.51
56074;BME280;41950;55.840;37.442;2023-07-20T02:35:25;98263.13;;;12.77;86.17
56074;BME280;41950;55.840;37.442;2023-07-20T02:37:51;98235.09;;;12.64;85.60
56074;BME280;41950;55.840;37.442;2023-07-20T02:40:17;98247.13;;;12.67;85.73
56074;BME280;41950;55.840;37.442;2023-07-20T02:42:42;98238.63;;;12.63;85.70
56074;BME280;41950;55.840;37.442;2023-07-20T02:45:08;98289.06;;;12.97;85.57
56074;BME280;41950;55.840;37.442;2023-07-20T02:47:34;98314.41;;;13.11;85.54
56074;BME280;41950;55.840;37.442;2023-07-20T02:49:59;98310.97;;;13.10;85.70
56074;BME280;41950;55.840;37.442;2023-07-20T02:52:25;98299.16;;;13.03;85.36
56074;BME280;41950;55.840;37.442;2023-07-20T02:54:51;98307.28;;;12.97;85.68
56074;BME280;41950;55.840;37.442;2023-07-20T02:57:17;98324.63;;;13.15;85.50
56074;BME280;41950;55.840;37.442;2023-07-20T02:59:42;98246.97;;;12.70;85.09
56074;BME280;41950;55.840;37.442;2023-07-20T03:02:08;98322.03;;;13.15;85.47
56074;BME280;41950;55.840;37.442;2023-07-20T03:04:36;98247.66;;;12.74;85.11
56074;BME280;41950;55.840;37.442;2023-07-20T03:07:05;98326.88;;;13.23;85.33
56074;BME280;41950;55.840;37.442;2023-07-20T03:09:32;98304.81;;;13.11;85.57
56074;BME280;41950;55.840;37.442;2023-07-20T03:11:58;98279.72;;;12.93;85.75
56074;BME280;41950;55.840;37.442;2023-07-20T03:14:23;98294.72;;;13.05;85.15
56074;BME280;41950;55.840;37.442;2023-07-20T03:16:49;98307.19;;;13.17;85.18
56074;BME280;41950;55.840;37.442;2023-07-20T03:19:15;98253.81;;;12.90;85.02
56074;BME280;41950;55.840;37.442;2023-07-20T03:21:40;98333.56;;;13.46;84.93
56074;BME280;41950;55.840;37.442;2023-07-20T03:24:09;98319.03;;;13.40;84.48
56074;BME280;41950;55.840;37.442;2023-07-20T03:26:35;98344.34;;;13.55;84.13
56074;BME280;41950;55.840;37.442;2023-07-20T03:29:02;98279.81;;;13.26;84.18
56074;BME280;41950;55.840;37.442;2023-07-20T03:31:28;98315.59;;;13.57;84.01
56074;BME280;41950;55.840;37.442;2023-07-20T03:33:53;98339.97;;;13.73;83.72
56074;BME280;41950;55.840;37.442;2023-07-20T03:36:19;98309.69;;;13.71;83.45
56074;BME280;41950;55.840;37.442;2023-07-20T03:38:45;98327.25;;;14.00;82.72
56074;BME280;41950;55.840;37.442;2023-07-20T03:41:11;98308.16;;;14.00;82.04
56074;BME280;41950;55.840;37.442;2023-07-20T03:43:37;98244.34;;;13.74;81.59
56074;BME280;41950;55.840;37.442;2023-07-20T03:46:03;98277.53;;;14.03;80.87
56074;BME280;41950;55.840;37.442;2023-07-20T03:48:32;98262.38;;;14.10;80.34
56074;BME280;41950;55.840;37.442;2023-07-20T03:50:58;98292.97;;;14.39;79.61
56074;BME280;41950;55.840;37.442;2023-07-20T03:53:25;98326.06;;;14.70;79.37
56074;BME280;41950;55.840;37.442;2023-07-20T03:55:52;98326.06;;;14.70;79.14
56074;BME280;41950;55.840;37.442;2023-07-20T03:58:19;98340.25;;;14.82;78.51
56074;BME280;41950;55.840;37.442;2023-07-20T04:00:51;98345.47;;;14.82;78.08
56074;BME280;41950;55.840;37.442;2023-07-20T04:03:20;98343.09;;;14.93;78.28
56074;BME280;41950;55.840;37.442;2023-07-20T04:05:46;98347.47;;;15.08;77.71
56074;BME280;41950;55.840;37.442;2023-07-20T04:08:12;98328.91;;;15.13;77.58
56074;BME280;41950;55.840;37.442;2023-07-20T04:10:38;98336.69;;;15.29;77.14
56074;BME280;41950;55.840;37.442;2023-07-20T04:13:04;98340.47;;;15.39;76.75
56074;BME280;41950;55.840;37.442;2023-07-20T04:15:30;98326.19;;;15.44;76.24
56074;BME280;41950;55.840;37.442;2023-07-20T04:17:56;98297.81;;;15.38;76.31
56074;BME280;41950;55.840;37.442;2023-07-20T04:20:23;98327.41;;;15.69;75.79
56074;BME280;41950;55.840;37.442;2023-07-20T04:22:49;98300.53;;;15.51;74.78
56074;BME280;41950;55.840;37.442;2023-07-20T04:25:15;98325.31;;;15.60;75.12
56074;BME280;41950;55.840;37.442;2023-07-20T04:27:41;98324.53;;;15.58;75.12
56074;BME280;41950;55.840;37.442;2023-07-20T04:30:08;98289.91;;;15.24;75.41
56074;BME280;41950;55.840;37.442;2023-07-20T04:32:34;98323.53;;;15.30;75.86
56074;BME280;41950;55.840;37.442;2023-07-20T04:35:00;98335.63;;;15.47;76.23
56074;BME280;41950;55.840;37.442;2023-07-20T04:37:25;98346.09;;;15.47;75.98
56074;BME280;41950;55.840;37.442;2023-07-20T04:39:51;98270.00;;;15.07;75.92
56074;BME280;41950;55.840;37.442;2023-07-20T04:42:16;98332.06;;;15.48;75.33
56074;BME280;41950;55.840;37.442;2023-07-20T04:44:42;98306.44;;;15.25;74.85
56074;BME280;41950;55.840;37.442;2023-07-20T04:47:08;98335.72;;;15.45;74.99
56074;BME280;41950;55.840;37.442;2023-07-20T04:49:36;98301.53;;;15.34;75.17
56074;BME280;41950;55.840;37.442;2023-07-20T04:52:02;98329.44;;;15.64;74.97
56074;BME280;41950;55.840;37.442;2023-07-20T04:54:28;98325.81;;;15.66;74.26
56074;BME280;41950;55.840;37.442;2023-07-20T04:56:54;98347.97;;;15.89;74.10
56074;BME280;41950;55.840;37.442;2023-07-20T04:59:19;98345.38;;;15.89;73.59
56074;BME280;41950;55.840;37.442;2023-07-20T05:01:45;98346.13;;;15.91;73.34
56074;BME280;41950;55.840;37.442;2023-07-20T05:04:10;98345.09;;;15.94;73.32
56074;BME280;41950;55.840;37.442;2023-07-20T05:06:36;98338.34;;;16.04;73.36
56074;BME280;41950;55.840;37.442;2023-07-20T05:09:04;98343.94;;;16.12;73.17
56074;BME280;41950;55.840;37.442;2023-07-20T05:11:30;98350.97;;;16.26;72.38
56074;BME280;41950;55.840;37.442;2023-07-20T05:13:56;98293.31;;;15.99;72.24
56074;BME280;41950;55.840;37.442;2023-07-20T05:16:21;98297.31;;;16.04;71.15
56074;BME280;41950;55.840;37.442;2023-07-20T05:18:47;98329.38;;;16.22;71.13
56074;BME280;41950;55.840;37.442;2023-07-20T05:21:13;98347.97;;;16.32;71.05
56074;BME280;41950;55.840;37.442;2023-07-20T05:23:41;98359.66;;;16.41;71.15
56074;BME280;41950;55.840;37.442;2023-07-20T05:26:06;98334.78;;;16.33;71.13
56074;BME280;41950;55.840;37.442;2023-07-20T05:28:32;98297.59;;;16.14;70.14
56074;BME280;41950;55.840;37.442;2023-07-20T05:30:58;98323.75;;;16.28;70.29
56074;BME280;41950;55.840;37.442;2023-07-20T05:33:26;98280.59;;;16.07;70.25
56074;BME280;41950;55.840;37.442;2023-07-20T05:35:51;98333.28;;;16.44;70.42
56074;BME280;41950;55.840;37.442;2023-07-20T05:38:17;98354.66;;;16.64;69.79
56074;BME280;41950;55.840;37.442;2023-07-20T05:40:44;98362.25;;;16.69;69.57
56074;BME280;41950;55.840;37.442;2023-07-20T05:43:10;98303.16;;;16.36;69.08
56074;BME280;41950;55.840;37.442;2023-07-20T05:45:37;98305.97;;;16.48;69.55
56074;BME280;41950;55.840;37.442;2023-07-20T05:48:02;98361.75;;;16.91;69.34
56074;BME280;41950;55.840;37.442;2023-07-20T05:50:28;98303.50;;;16.59;68.65
56074;BME280;41950;55.840;37.442;2023-07-20T05:52:54;98363.50;;;17.05;68.52
56074;BME280;41950;55.840;37.442;2023-07-20T05:55:20;98364.78;;;17.12;67.34
56074;BME280;41950;55.840;37.442;2023-07-20T05:57:46;98361.28;;;16.98;67.77
56074;BME280;41950;55.840;37.442;2023-07-20T06:00:13;98345.38;;;16.87;67.41
56074;BME280;41950;55.840;37.442;2023-07-20T06:02:39;98300.06;;;16.73;66.75
56074;BME280;41950;55.840;37.442;2023-07-20T06:05:08;98346.53;;;17.10;66.52
56074;BME280;41950;55.840;37.442;2023-07-20T06:07:37;98368.25;;;17.25;65.87
56074;BME280;41950;55.840;37.442;2023-07-20T06:10:03;98281.09;;;16.82;66.14
56074;BME280;41950;55.840;37.442;2023-07-20T06:12:29;98361.50;;;17.35;64.21
56074;BME280;41950;55.840;37.442;2023-07-20T06:14:55;98369.56;;;17.32;64.28
56074;BME280;41950;55.840;37.442;2023-07-20T06:17:20;98317.72;;;16.96;64.28
56074;BME280;41950;55.840;37.442;2023-07-20T06:19:46;98377.75;;;17.40;64.28
56074;BME280;41950;55.840;37.442;2023-07-20T06:22:12;98292.81;;;17.03;63.92
56074;BME280;41950;55.840;37.442;2023-07-20T06:24:37;98367.28;;;17.53;62.97
56074;BME280;41950;55.840;37.442;2023-07-20T06:27:03;98273.75;;;17.14;62.81
56074;BME280;41950;55.840;37.442;2023-07-20T06:29:31;98353.09;;;17.70;62.93
56074;BME280;41950;55.840;37.442;2023-07-20T06:31:56;98232.75;;;17.13;61.67
56074;BME280;41950;55.840;37.442;2023-07-20T06:34:22;98313.72;;;17.70;61.57
56074;BME280;41950;55.840;37.442;2023-07-20T06:36:48;98306.81;;;17.69;60.97
56074;BME280;41950;55.840;37.442;2023-07-20T06:39:13;98296.06;;;17.59;61.15
56074;BME280;41950;55.840;37.442;2023-07-20T06:41:39;98191.75;;;16.99;61.12
56074;BME280;41950;55.840;37.442;2023-07-20T06:44:05;98126.34;;;16.58;60.00
56074;BME280;41950;55.840;37.442;2023-07-20T06:46:30;98265.50;;;17.45;59.76
56074;BME280;41950;55.840;37.442;2023-07-20T06:48:56;98268.75;;;17.49;59.81
56074;BME280;41950;55.840;37.442;2023-07-20T06:51:22;98314.56;;;17.96;58.03
56074;BME280;41950;55.840;37.442;2023-07-20T06:53:48;98162.19;;;17.10;56.72
56074;BME280;41950;55.840;37.442;2023-07-20T06:56:13;98247.78;;;17.61;55.66
56074;BME280;41950;55.840;37.442;2023-07-20T06:58:39;98335.88;;;18.16;55.31
56074;BME280;41950;55.840;37.442;2023-07-20T07:01:08;98235.94;;;17.56;54.12
56074;BME280;41950;55.840;37.442;2023-07-20T07:03:36;98356.34;;;18.37;54.45
56074;BME280;41950;55.840;37.442;2023-07-20T07:06:02;98364.94;;;18.51;54.53
56074;BME280;41950;55.840;37.442;2023-07-20T07:08:27;98361.03;;;18.70;54.29
56074;BME280;41950;55.840;37.442;2023-07-20T07:10:53;98359.31;;;18.81;53.13
56074;BME280;41950;55.840;37.442;2023-07-20T07:13:19;98345.00;;;18.86;52.53
56074;BME280;41950;55.840;37.442;2023-07-20T07:15:45;98329.84;;;18.65;54.25
56074;BME280;41950;55.840;37.442;2023-07-20T07:18:11;98339.69;;;18.74;51.75
56074;BME280;41950;55.840;37.442;2023-07-20T07:20:37;98366.22;;;18.95;51.99
56074;BME280;41950;55.840;37.442;2023-07-20T07:23:03;98296.63;;;18.64;52.42
56074;BME280;41950;55.840;37.442;2023-07-20T07:25:28;98373.28;;;19.19;51.50
56074;BME280;41950;55.840;37.442;2023-07-20T07:27:55;98366.38;;;19.29;50.00
56074;BME280;41950;55.840;37.442;2023-07-20T07:30:21;98263.22;;;18.77;50.21
56074;BME280;41950;55.840;37.442;2023-07-20T07:32:47;98373.03;;;19.45;49.88
56074;BME280;41950;55.840;37.442;2023-07-20T07:35:13;98287.47;;;18.94;48.89
56074;BME280;41950;55.840;37.442;2023-07-20T07:37:39;98347.88;;;19.41;49.37
56074;BME280;41950;55.840;37.442;2023-07-20T07:40:06;98359.25;;;19.66;49.27
56074;BME280;41950;55.840;37.442;2023-07-20T07:42:32;98371.22;;;19.70;50.06
56074;BME280;41950;55.840;37.442;2023-07-20T07:44:57;98318.50;;;19.48;50.07
56074;BME280;41950;55.840;37.442;2023-07-20T07:47:23;98375.22;;;19.98;50.17
56074;BME280;41950;55.840;37.442;2023-07-20T07:49:48;98342.53;;;19.78;50.02
56074;BME280;41950;55.840;37.442;2023-07-20T07:52:14;98361.69;;;19.80;50.09
56074;BME280;41950;55.840;37.442;2023-07-20T07:54:40;98355.66;;;19.67;50.69
56074;BME280;41950;55.840;37.442;2023-07-20T07:57:06;98338.19;;;19.42;51.41
56074;BME280;41950;55.840;37.442;2023-07-20T07:59:32;98372.88;;;19.71;50.98
56074;BME280;41950;55.840;37.442;2023-07-20T08:02:03;98366.84;;;19.82;50.65
56074;BME280;41950;55.840;37.442;2023-07-20T08:04:30;98348.28;;;19.94;50.29
56074;BME280;41950;55.840;37.442;2023-07-20T08:06:55;98362.22;;;20.19;49.06
56074;BME280;41950;55.840;37.442;2023-07-20T08:09:21;98302.09;;;19.90;48.79
56074;BME280;41950;55.840;37.442;2023-07-20T08:11:47;98332.16;;;20.10;48.33
56074;BME280;41950;55.840;37.442;2023-07-20T08:14:13;98364.97;;;20.17;47.07
56074;BME280;41950;55.840;37.442;2023-07-20T08:16:39;98359.06;;;19.91;47.18
56074;BME280;41950;55.840;37.442;2023-07-20T08:19:05;98374.91;;;20.14;48.52
56074;BME280;41950;55.840;37.442;2023-07-20T08:21:30;98297.53;;;19.92;47.73
56074;BME280;41950;55.840;37.442;2023-07-20T08:23:56;98347.97;;;20.32;47.82
56074;BME280;41950;55.840;37.442;2023-07-20T08:26:23;98358.75;;;20.52;46.33
56074;BME280;41950;55.840;37.442;2023-07-20T08:28:49;98381.31;;;20.56;47.52
56074;BME280;41950;55.840;37.442;2023-07-20T08:31:15;98379.63;;;20.55;47.40
56074;BME280;41950;55.840;37.442;2023-07-20T08:33:40;98366.06;;;20.71;47.33
56074;BME280;41950;55.840;37.442;2023-07-20T08:36:06;98326.91;;;20.55;46.66
56074;BME280;41950;55.840;37.442;2023-07-20T08:38:31;98393.13;;;20.95;47.17
56074;BME280;41950;55.840;37.442;2023-07-20T08:40:57;98375.06;;;20.68;47.10
56074;BME280;41950;55.840;37.442;2023-07-20T08:43:25;98360.34;;;20.43;47.86
56074;BME280;41950;55.840;37.442;2023-07-20T08:45:54;98383.53;;;20.27;48.03
56074;BME280;41950;55.840;37.442;2023-07-20T08:48:21;98355.09;;;19.74;49.89
56074;BME280;41950;55.840;37.442;2023-07-20T08:50:49;98392.63;;;19.65;51.97
56074;BME280;41950;55.840;37.442;2023-07-20T08:53:16;98358.88;;;19.35;53.35
56074;BME280;41950;55.840;37.442;2023-07-20T08:55:44;98383.56;;;19.45;53.69
56074;BME280;41950;55.840;37.442;2023-07-20T08:58:12;98401.03;;;19.47;54.75
56074;BME280;41950;55.840;37.442;2023-07-20T09:00:40;98395.19;;;19.78;54.89
56074;BME280;41950;55.840;37.442;2023-07-20T09:03:06;98354.50;;;19.82;54.12
56074;BME280;41950;55.840;37.442;2023-07-20T09:05:32;98405.78;;;20.23;54.11
56074;BME280;41950;55.840;37.442;2023-07-20T09:07:58;98400.75;;;20.20;53.78
56074;BME280;41950;55.840;37.442;2023-07-20T09:10:24;98381.44;;;19.97;53.39
56074;BME280;41950;55.840;37.442;2023-07-20T09:12:50;98385.13;;;19.83;54.00
56074;BME280;41950;55.840;37.442;2023-07-20T09:15:16;98186.56;;;18.36;53.12
56074;BME280;41950;55.840;37.442;2023-07-20T09:17:47;98268.72;;;18.74;54.50
56074;BME280;41950;55.840;37.442;2023-07-20T09:20:14;98262.56;;;18.63;54.21
56074;BME280;41950;55.840;37.442;2023-07-20T09:22:42;98348.94;;;19.39;53.65
56074;BME280;41950;55.840;37.442;2023-07-20T09:25:15;98354.28;;;19.96;52.58
56074;BME280;41950;55.840;37.442;2023-07-20T09:27:43;98274.31;;;19.86;51.64
56074;BME280;41950;55.840;37.442;2023-07-20T09:30:10;98291.91;;;19.97;50.76
56074;BME280;41950;55.840;37.442;2023-07-20T09:32:49;98406.69;;;20.68;50.82
56074;BME280;41950;55.840;37.442;2023-07-20T09:35:18;98402.03;;;20.60;50.43
56074;BME280;41950;55.840;37.442;2023-07-20T09:38:00;98393.97;;;20.40;51.00
56074;BME280;41950;55.840;37.442;2023-07-20T09:40:27;98371.19;;;20.16;51.69
56074;BME280;41950;55.840;37.442;2023-07-20T09:42:54;98426.75;;;20.24;52.68
56074;BME280;41950;55.840;37.442;2023-07-20T09:45:35;98439.47;;;19.84;55.89
56074;BME280;41950;55.840;37.442;2023-07-20T09:48:05;98411.25;;;18.91;60.76
56074;BME280;41950;55.840;37.442;2023-07-20T09:50:49;98432.84;;;18.70;63.27
56074;BME280;41950;55.840;37.442;2023-07-20T09:53:14;98418.59;;;18.60;64.28
56074;BME280;41950;55.840;37.442;2023-07-20T09:55:41;98431.72;;;18.98;64.53
56074;BME280;41950;55.840;37.442;2023-07-20T09:58:08;98419.47;;;19.10;65.84
56074;BME280;41950;55.840;37.442;2023-07-20T10:00:39;98397.97;;;19.16;62.97
56074;BME280;41950;55.840;37.442;2023-07-20T10:03:05;98388.59;;;19.49;60.69
56074;BME280;41950;55.840;37.442;2023-07-20T10:05:33;98409.91;;;20.49;57.29
56074;BME280;41950;55.840;37.442;2023-07-20T10:08:01;98398.91;;;20.66;57.44
56074;BME280;41950;55.840;37.442;2023-07-20T10:10:28;98397.66;;;20.26;56.42
56074;BME280;41950;55.840;37.442;2023-07-20T10:12:57;98427.38;;;20.39;55.21
56074;BME280;41950;55.840;37.442;2023-07-20T10:15:36;98419.25;;;20.31;52.70
56074;BME280;41950;55.840;37.442;2023-07-20T10:20:31;98408.69;;;19.73;56.31
56074;BME280;41950;55.840;37.442;2023-07-20T10:22:59;98429.91;;;19.83;57.61
56074;BME280;41950;55.840;37.442;2023-07-20T10:25:25;98383.66;;;19.44;57.82
56074;BME280;41950;55.840;37.442;2023-07-20T10:27:52;98436.75;;;19.62;57.02
56074;BME280;41950;55.840;37.442;2023-07-20T10:30:18;98428.44;;;19.31;57.59
56074;BME280;41950;55.840;37.442;2023-07-20T10:32:45;98365.41;;;18.82;59.12
56074;BME280;41950;55.840;37.442;2023-07-20T10:35:16;98362.31;;;18.64;59.85
56074;BME280;41950;55.840;37.442;2023-07-20T10:43:02;98401.22;;;19.43;58.96
56074;BME280;41950;55.840;37.442;2023-07-20T10:48:05;98409.84;;;21.59;55.09
56074;BME280;41950;55.840;37.442;2023-07-20T10:50:32;98369.28;;;22.54;50.87
56074;BME280;41950;55.840;37.442;2023-07-20T10:53:16;98411.47;;;23.74;47.83
56074;BME280;41950;55.840;37.442;2023-07-20T10:55:42;98404.81;;;23.01;48.18
56074;BME280;41950;55.840;37.442;2023-07-20T10:58:13;98411.38;;;22.15;50.93
56074;BME280;41950;55.840;37.442;2023-07-20T11:01:04;98395.63;;;21.51;52.38
56074;BME280;41950;55.840;37.442;2023-07-20T11:03:32;98415.84;;;21.07;53.91
56074;BME280;41950;55.840;37.442;2023-07-20T11:05:59;98364.25;;;20.37;55.03
56074;BME280;41950;55.840;37.442;2023-07-20T11:08:41;98356.59;;;20.12;55.45
56074;BME280;41950;55.840;37.442;2023-07-20T11:11:30;98432.28;;;20.32;57.68
56074;BME280;41950;55.840;37.442;2023-07-20T11:14:04;98417.84;;;20.60;55.33
56074;BME280;41950;55.840;37.442;2023-07-20T11:16:40;98437.25;;;20.82;54.32
56074;BME280;41950;55.840;37.442;2023-07-20T11:19:12;98423.03;;;20.16;53.95
56074;BME280;41950;55.840;37.442;2023-07-20T11:21:41;98454.78;;;19.79;54.58
56074;BME280;41950;55.840;37.442;2023-07-20T11:24:08;98397.03;;;19.17;54.92
56074;BME280;41950;55.840;37.442;2023-07-20T11:26:49;98449.88;;;19.38;55.35
56074;BME280;41950;55.840;37.442;2023-07-20T11:29:17;98378.91;;;19.01;55.86
56074;BME280;41950;55.840;37.442;2023-07-20T11:31:44;98441.34;;;19.47;55.97
56074;BME280;41950;55.840;37.442;2023-07-20T11:34:20;98438.06;;;19.43;56.59
56074;BME280;41950;55.840;37.442;2023-07-20T11:36:50;98432.06;;;19.41;56.85
56074;BME280;41950;55.840;37.442;2023-07-20T11:39:18;98427.66;;;19.18;56.83
56074;BME280;41950;55.840;37.442;2023-07-20T11:41:51;98443.56;;;19.40;57.11
56074;BME280;41950;55.840;37.442;2023-07-20T11:44:17;98467.47;;;19.37;58.47
56074;BME280;41950;55.840;37.442;2023-07-20T11:46:44;98468.69;;;19.21;59.90
56074;BME280;41950;55.840;37.442;2023-07-20T11:49:10;98451.91;;;18.98;60.59
56074;BME280;41950;55.840;37.442;2023-07-20T11:51:36;98397.28;;;18.77;61.50
56074;BME280;41950;55.840;37.442;2023-07-20T11:54:04;98462.16;;;20.44;57.58
56074;BME280;41950;55.840;37.442;2023-07-20T11:56:30;98461.91;;;21.37;55.15
56074;BME280;41950;55.840;37.442;2023-07-20T11:58:57;98458.66;;;21.22;54.75
56074;BME280;41950;55.840;37.442;2023-07-20T12:01:26;98460.47;;;20.99;55.19
56074;BME280;41950;55.840;37.442;2023-07-20T12:03:57;98439.13;;;20.35;55.70
56074;BME280;41950;55.840;37.442;2023-07-20T12:06:24;98441.72;;;20.13;54.90
56074;BME280;41950;55.840;37.442;2023-07-20T12:08:51;98454.88;;;20.01;56.09
56074;BME280;41950;55.840;37.442;2023-07-20T12:11:37;98428.41;;;20.03;55.98
56074;BME280;41950;55.840;37.442;2023-07-20T12:14:09;98452.25;;;20.13;55.53
56074;BME280;41950;55.840;37.442;2023-07-20T12:16:36;98442.34;;;20.27;56.13
56074;BME280;41950;55.840;37.442;2023-07-20T12:19:08;98459.66;;;20.65;54.52
56074;BME280;41950;55.840;37.442;2023-07-20T12:21:35;98422.88;;;20.41;54.97
56074;BME280;41950;55.840;37.442;2023-07-20T12:24:04;98461.94;;;20.70;56.57
56074;BME280;41950;55.840;37.442;2023-07-20T12:26:32;98452.09;;;20.72;54.76
56074;BME280;41950;55.840;37.442;2023-07-20T12:28:58;98450.19;;;20.74;54.59
56074;BME280;41950;55.840;37.442;2023-07-20T12:31:24;98430.28;;;20.70;54.87
56074;BME280;41950;55.840;37.442;2023-07-20T12:33:51;98435.78;;;20.78;52.98
56074;BME280;41950;55.840;37.442;2023-07-20T12:36:17;98438.88;;;21.05;52.33
56074;BME280;41950;55.840;37.442;2023-07-20T12:38:43;98445.59;;;21.20;52.66
56074;BME280;41950;55.840;37.442;2023-07-20T12:41:11;98449.91;;;21.33;52.85
56074;BME280;41950;55.840;37.442;2023-07-20T12:43:44;98414.81;;;21.10;52.72
56074;BME280;41950;55.840;37.442;2023-07-20T12:46:11;98439.84;;;21.15;53.37
56074;BME280;41950;55.840;37.442;2023-07-20T12:48:38;98410.53;;;20.86;53.70
56074;BME280;41950;55.840;37.442;2023-07-20T12:51:05;98434.72;;;20.80;53.15
56074;BME280;41950;55.840;37.442;2023-07-20T12:53:31;98453.16;;;21.03;53.33
56074;BME280;41950;55.840;37.442;2023-07-20T12:56:01;98401.38;;;21.02;53.54
56074;BME280;41950;55.840;37.442;2023-07-20T12:58:27;98417.00;;;21.48;52.93
56074;BME280;41950;55.840;37.442;2023-07-20T13:00:53;98374.63;;;21.49;51.76
56074;BME280;41950;55.840;37.442;2023-07-20T13:03:19;98438.59;;;22.06;50.53
56074;BME280;41950;55.840;37.442;2023-07-20T13:05:50;98308.59;;;20.96;50.16
56074;BME280;41950;55.840;37.442;2023-07-20T13:08:16;98441.97;;;21.33;50.50
56074;BME280;41950;55.840;37.442;2023-07-20T13:10:43;98421.50;;;21.03;51.46
56074;BME280;41950;55.840;37.442;2023-07-20T13:13:08;98441.75;;;21.24;51.27